createdAt,value
2023-05-09T00:00:38.656Z,2.86
2023-05-09T00:03:15.574Z,2.86
2023-05-09T00:05:47.121Z,2.84
2023-05-09T00:08:16.486Z,2.84
2023-05-09T00:10:45.381Z,2.85
2023-05-09T00:13:14.714Z,2.85
2023-05-09T00:15:43.756Z,2.84
2023-05-09T00:18:14.610Z,2.84
2023-05-09T00:20:43.813Z,2.84
2023-05-09T00:23:14.485Z,2.84
2023-05-09T00:25:46.010Z,2.84
2023-05-09T00:28:14.962Z,2.83
2023-05-09T00:30:43.981Z,2.79
2023-05-09T00:33:14.828Z,2.75
2023-05-09T00:35:43.827Z,2.69
2023-05-09T00:38:13.543Z,2.61
2023-05-09T00:40:42.409Z,2.57
2023-05-09T00:43:14.088Z,2.57
2023-05-09T00:45:43.419Z,2.56
2023-05-09T00:48:16.034Z,2.54
2023-05-09T00:50:52.328Z,2.53
2023-05-09T00:53:21.486Z,2.52
2023-05-09T00:55:50.602Z,2.51
2023-05-09T00:58:19.703Z,2.48
2023-05-09T01:00:48.650Z,2.43
2023-05-09T01:03:18.542Z,2.38
2023-05-09T01:05:55.936Z,2.38
2023-05-09T01:08:37.755Z,2.33
2023-05-09T01:11:15.302Z,2.29
2023-05-09T01:13:57.831Z,2.29
2023-05-09T01:16:35.239Z,2.31
2023-05-09T01:19:22.194Z,2.31
2023-05-09T01:21:52.781Z,2.26
2023-05-09T01:24:44.959Z,2.21
2023-05-09T01:27:28.747Z,2.12
2023-05-09T01:29:59.645Z,2.07
2023-05-09T01:32:33.914Z,2.03
2023-05-09T01:35:05.778Z,2.02
2023-05-09T01:37:39.832Z,2.00
2023-05-09T01:40:14.270Z,2.03
2023-05-09T01:42:47.633Z,2.00
2023-05-09T01:45:18.379Z,1.97
2023-05-09T01:47:50.092Z,1.94
2023-05-09T01:50:21.952Z,1.92
2023-05-09T01:52:56.174Z,1.93
2023-05-09T01:55:26.825Z,1.90
2023-05-09T01:57:58.534Z,1.82
2023-05-09T02:00:28.632Z,1.77
2023-05-09T02:02:58.791Z,1.76
2023-05-09T02:05:31.118Z,1.78
2023-05-09T02:08:03.401Z,1.78
2023-05-09T02:10:37.501Z,1.81
2023-05-09T02:13:08.919Z,1.78
2023-05-09T02:15:39.943Z,1.73
2023-05-09T02:18:08.919Z,1.71
2023-05-09T02:20:39.372Z,1.69
2023-05-09T02:23:08.680Z,1.64
2023-05-09T02:25:38.815Z,1.65
2023-05-09T02:28:08.652Z,1.64
2023-05-09T02:30:44.304Z,1.59
2023-05-09T02:33:15.506Z,1.54
2023-05-09T02:35:49.064Z,1.53
2023-05-09T02:38:18.656Z,1.55
2023-05-09T02:40:50.984Z,1.54
2023-05-09T02:43:23.504Z,1.52
2023-05-09T02:45:52.423Z,1.53
2023-05-09T02:48:21.332Z,1.55
2023-05-09T02:50:50.346Z,1.53
2023-05-09T02:53:19.265Z,1.51
2023-05-09T02:55:50.034Z,1.49
2023-05-09T02:58:19.422Z,1.48
2023-05-09T03:00:48.256Z,1.44
2023-05-09T03:03:18.785Z,1.45
2023-05-09T03:05:50.859Z,1.45
2023-05-09T03:08:19.797Z,1.43
2023-05-09T03:10:48.624Z,1.42
2023-05-09T03:13:18.216Z,1.41
2023-05-09T03:15:47.049Z,1.43
2023-05-09T03:18:16.017Z,1.44
2023-05-09T03:20:45.086Z,1.41
2023-05-09T03:23:14.489Z,1.41
2023-05-09T03:25:43.420Z,1.44
2023-05-09T03:28:17.944Z,1.48
2023-05-09T03:30:46.773Z,1.47
2023-05-09T03:33:19.864Z,1.48
2023-05-09T03:35:48.730Z,1.48
2023-05-09T03:38:18.341Z,1.50
2023-05-09T03:40:47.393Z,1.53
2023-05-09T03:43:19.434Z,1.59
2023-05-09T03:45:49.344Z,1.68
2023-05-09T03:48:19.292Z,1.78
2023-05-09T03:50:51.936Z,1.90
2023-05-09T03:53:21.149Z,2.02
2023-05-09T03:55:50.232Z,2.16
2023-05-09T03:58:19.163Z,2.28
2023-05-09T04:00:52.159Z,2.41
2023-05-09T04:03:23.301Z,2.56
2023-05-09T04:05:54.623Z,2.72
2023-05-09T04:08:38.712Z,3.07
2023-05-09T04:11:08.189Z,3.93
2023-05-09T04:13:39.298Z,5.28
2023-05-09T04:16:16.457Z,7.32
2023-05-09T04:18:46.041Z,9.37
2023-05-09T04:21:16.637Z,11.13
2023-05-09T04:23:48.491Z,12.64
2023-05-09T04:26:17.903Z,14.15
2023-05-09T04:28:48.605Z,15.40
2023-05-09T04:31:18.868Z,16.72
2023-05-09T04:33:51.427Z,17.93
2023-05-09T04:36:20.643Z,18.63
2023-05-09T04:38:49.785Z,17.62
2023-05-09T04:41:22.547Z,17.11
2023-05-09T04:43:51.950Z,16.41
2023-05-09T04:46:25.654Z,17.16
2023-05-09T04:48:56.138Z,18.59
2023-05-09T04:51:25.582Z,20.07
2023-05-09T04:53:57.518Z,21.36
2023-05-09T04:56:31.218Z,22.63
2023-05-09T04:59:03.098Z,23.81
2023-05-09T05:01:35.238Z,24.41
2023-05-09T05:04:05.395Z,25.16
2023-05-09T05:06:36.392Z,25.79
2023-05-09T05:09:07.087Z,26.58
2023-05-09T05:11:41.660Z,27.33
2023-05-09T05:14:16.210Z,27.96
2023-05-09T05:16:46.206Z,28.47
2023-05-09T05:19:15.149Z,29.07
2023-05-09T05:21:44.240Z,29.41
2023-05-09T05:24:13.376Z,29.79
2023-05-09T05:26:44.078Z,30.22
2023-05-09T05:29:13.982Z,30.50
2023-05-09T05:31:49.322Z,29.22
2023-05-09T05:34:18.750Z,27.34
2023-05-09T05:36:48.525Z,25.73
2023-05-09T05:39:18.762Z,25.93
2023-05-09T05:41:48.886Z,27.31
2023-05-09T05:44:21.771Z,28.45
2023-05-09T05:46:51.983Z,29.23
2023-05-09T05:49:21.658Z,29.91
2023-05-09T05:51:51.308Z,30.49
2023-05-09T05:54:21.478Z,30.57
2023-05-09T05:56:50.677Z,29.08
2023-05-09T05:59:19.671Z,27.77
2023-05-09T06:01:49.291Z,27.41
2023-05-09T06:04:18.320Z,26.48
2023-05-09T06:06:47.598Z,25.71
2023-05-09T06:09:16.576Z,24.75
2023-05-09T06:11:45.504Z,24.02
2023-05-09T06:14:14.559Z,23.52
2023-05-09T06:16:44.736Z,23.01
2023-05-09T06:19:14.084Z,23.23
2023-05-09T06:21:43.628Z,22.75
2023-05-09T06:24:23.485Z,21.56
2023-05-09T06:27:06.861Z,20.71
2023-05-09T06:29:36.941Z,20.05
2023-05-09T06:32:06.694Z,19.31
2023-05-09T06:34:38.872Z,18.68
2023-05-09T06:37:07.872Z,18.23
2023-05-09T06:39:37.641Z,17.75
2023-05-09T06:42:07.618Z,17.43
2023-05-09T06:44:39.751Z,17.07
2023-05-09T06:47:08.868Z,16.81
2023-05-09T06:49:37.760Z,16.63
2023-05-09T06:52:06.751Z,16.50
2023-05-09T06:54:36.166Z,16.31
2023-05-09T06:57:05.114Z,16.15
2023-05-09T06:59:36.201Z,16.02
2023-05-09T07:02:05.211Z,15.91
2023-05-09T07:04:36.054Z,15.82
2023-05-09T07:07:05.620Z,15.86
2023-05-09T07:09:36.420Z,15.81
2023-05-09T07:12:06.387Z,15.80
2023-05-09T07:14:37.068Z,16.31
2023-05-09T07:17:21.998Z,16.76
2023-05-09T07:19:52.934Z,16.78
2023-05-09T07:22:21.958Z,16.70
2023-05-09T07:24:50.906Z,16.58
2023-05-09T07:27:19.900Z,16.61
2023-05-09T07:29:51.691Z,16.47
2023-05-09T07:32:20.702Z,16.35
2023-05-09T07:34:49.855Z,16.37
2023-05-09T07:37:18.710Z,16.40
2023-05-09T07:39:47.649Z,16.25
2023-05-09T07:42:16.759Z,16.11
2023-05-09T07:44:46.664Z,16.20
2023-05-09T07:47:15.556Z,16.23
2023-05-09T07:49:45.961Z,16.25
2023-05-09T07:52:16.795Z,16.30
2023-05-09T07:54:46.114Z,16.31
2023-05-09T07:57:15.627Z,16.29
2023-05-09T07:59:44.631Z,16.33
2023-05-09T08:02:13.512Z,16.35
2023-05-09T08:04:42.455Z,16.47
2023-05-09T08:07:11.415Z,16.58
2023-05-09T08:09:40.274Z,16.68
2023-05-09T08:12:09.705Z,16.75
2023-05-09T08:14:39.217Z,16.67
2023-05-09T08:17:08.296Z,16.64
2023-05-09T08:19:37.208Z,16.67
2023-05-09T08:22:06.050Z,16.62
2023-05-09T08:24:37.437Z,16.50
2023-05-09T08:27:06.247Z,16.58
2023-05-09T08:29:35.544Z,16.55
2023-05-09T08:32:04.896Z,16.60
2023-05-09T08:34:35.069Z,16.65
2023-05-09T08:37:05.061Z,16.73
2023-05-09T08:39:36.280Z,16.79
2023-05-09T08:42:06.831Z,16.93
2023-05-09T08:44:37.154Z,17.13
2023-05-09T08:47:06.432Z,17.47
2023-05-09T08:49:37.817Z,17.72
2023-05-09T08:52:07.396Z,18.08
2023-05-09T08:54:36.895Z,18.46
2023-05-09T08:57:06.567Z,18.89
2023-05-09T08:59:38.109Z,19.17
2023-05-09T09:02:07.973Z,19.40
2023-05-09T09:04:36.913Z,19.71
2023-05-09T09:07:07.647Z,20.16
2023-05-09T09:09:45.336Z,20.51
2023-05-09T09:12:16.144Z,20.85
2023-05-09T09:14:48.337Z,21.16
2023-05-09T09:17:20.101Z,21.15
2023-05-09T09:19:53.758Z,21.09
2023-05-09T09:22:22.582Z,21.01
2023-05-09T09:24:51.508Z,20.97
2023-05-09T09:27:21.508Z,21.11
2023-05-09T09:29:50.312Z,21.33
2023-05-09T09:32:19.463Z,21.26
2023-05-09T09:34:50.235Z,21.20
2023-05-09T09:37:23.474Z,21.52
2023-05-09T09:39:56.306Z,21.98
2023-05-09T09:42:25.354Z,22.00
2023-05-09T09:45:02.700Z,22.15
2023-05-09T09:47:37.150Z,22.32
2023-05-09T09:50:15.353Z,22.27
2023-05-09T09:52:48.801Z,22.43
2023-05-09T09:55:18.218Z,22.24
2023-05-09T09:57:47.931Z,22.15
2023-05-09T10:00:19.514Z,22.22
2023-05-09T10:02:50.155Z,22.38
2023-05-09T10:05:23.381Z,22.48
2023-05-09T10:07:56.091Z,22.48
2023-05-09T10:10:28.031Z,22.62
2023-05-09T10:12:59.224Z,22.79
2023-05-09T10:15:38.453Z,23.05
2023-05-09T10:18:19.332Z,22.67
2023-05-09T10:20:51.577Z,22.79
2023-05-09T10:23:22.922Z,23.07
2023-05-09T10:25:58.630Z,23.04
2023-05-09T10:28:31.978Z,23.03
2023-05-09T10:31:07.136Z,22.95
2023-05-09T10:33:46.204Z,22.79
2023-05-09T10:36:17.539Z,22.97
2023-05-09T10:38:48.177Z,23.19
2023-05-09T10:41:18.922Z,23.07
2023-05-09T10:43:48.292Z,23.09
2023-05-09T10:46:17.507Z,23.06
2023-05-09T10:48:48.854Z,23.01
2023-05-09T10:51:18.320Z,22.67
2023-05-09T10:53:49.213Z,22.50
2023-05-09T10:56:26.497Z,22.39
2023-05-09T10:58:55.947Z,22.30
2023-05-09T11:01:34.412Z,22.44
2023-05-09T11:04:10.944Z,22.58
2023-05-09T11:06:50.349Z,22.76
2023-05-09T11:09:35.354Z,22.70
2023-05-09T11:12:12.300Z,22.58
2023-05-09T11:14:44.673Z,22.79
2023-05-09T11:17:15.669Z,22.93
2023-05-09T11:20:03.069Z,23.08
2023-05-09T11:22:40.863Z,22.96
2023-05-09T11:25:11.227Z,22.63
2023-05-09T11:27:43.416Z,22.48
2023-05-09T11:30:15.090Z,22.43
2023-05-09T11:32:50.349Z,22.51
2023-05-09T11:35:21.542Z,22.51
2023-05-09T11:37:54.639Z,22.44
2023-05-09T11:40:23.764Z,22.36
2023-05-09T11:42:57.784Z,22.31
2023-05-09T11:45:30.208Z,22.28
2023-05-09T11:48:08.284Z,22.17
2023-05-09T11:50:37.533Z,22.14
2023-05-09T11:53:08.407Z,22.06
2023-05-09T11:55:40.993Z,21.95
2023-05-09T11:58:10.317Z,21.99
2023-05-09T12:00:45.038Z,22.10
2023-05-09T12:03:14.609Z,22.06
2023-05-09T12:05:44.097Z,22.05
2023-05-09T12:08:15.030Z,21.75
2023-05-09T12:10:44.114Z,21.59
2023-05-09T12:13:13.216Z,21.53
2023-05-09T12:15:45.441Z,21.56
2023-05-09T12:18:16.522Z,21.38
2023-05-09T12:20:47.688Z,21.29
2023-05-09T12:23:20.427Z,21.13
2023-05-09T12:25:55.085Z,21.09
2023-05-09T12:28:26.056Z,21.07
2023-05-09T12:30:55.499Z,21.16
2023-05-09T12:33:24.952Z,21.16
2023-05-09T12:36:05.199Z,21.15
2023-05-09T12:38:38.063Z,21.06
2023-05-09T12:41:18.822Z,20.94
2023-05-09T12:43:58.435Z,20.93
2023-05-09T12:46:31.027Z,20.97
2023-05-09T12:49:00.174Z,21.10
2023-05-09T12:51:30.502Z,21.11
2023-05-09T12:54:04.425Z,21.04
2023-05-09T12:56:35.975Z,21.03
2023-05-09T12:59:10.645Z,21.02
2023-05-09T13:01:41.496Z,20.90
2023-05-09T13:04:13.481Z,20.84
2023-05-09T13:06:50.187Z,20.87
2023-05-09T13:09:19.548Z,20.90
2023-05-09T13:11:49.465Z,20.79
2023-05-09T13:14:19.100Z,20.84
2023-05-09T13:16:51.530Z,20.96
2023-05-09T13:19:21.068Z,20.88
2023-05-09T13:21:50.036Z,20.83
2023-05-09T13:24:19.020Z,20.77
2023-05-09T13:26:48.023Z,20.67
2023-05-09T13:29:16.953Z,20.66
2023-05-09T13:31:45.775Z,20.71
2023-05-09T13:34:21.577Z,20.60
2023-05-09T13:36:50.539Z,20.52
2023-05-09T13:39:19.860Z,20.35
2023-05-09T13:41:50.728Z,20.21
2023-05-09T13:44:19.690Z,20.30
2023-05-09T13:46:48.693Z,20.32
2023-05-09T13:49:19.148Z,20.25
2023-05-09T13:51:48.121Z,20.17
2023-05-09T13:54:19.193Z,20.06
2023-05-09T13:56:48.300Z,19.99
2023-05-09T13:59:24.323Z,19.86
2023-05-09T14:01:56.910Z,19.76
2023-05-09T14:04:26.776Z,19.63
2023-05-09T14:06:56.224Z,19.78
2023-05-09T14:09:25.761Z,19.92
2023-05-09T14:11:56.916Z,19.97
2023-05-09T14:14:26.068Z,19.95
2023-05-09T14:16:55.169Z,19.98
2023-05-09T14:19:26.502Z,19.95
2023-05-09T14:21:55.914Z,19.86
2023-05-09T14:24:25.314Z,19.71
2023-05-09T14:26:54.230Z,19.59
2023-05-09T14:29:23.529Z,19.47
2023-05-09T14:31:52.757Z,19.38
2023-05-09T14:34:24.758Z,19.29
2023-05-09T14:36:53.651Z,19.27
2023-05-09T14:39:22.895Z,19.29
2023-05-09T14:41:52.688Z,19.22
2023-05-09T14:44:24.741Z,19.16
2023-05-09T14:46:53.547Z,19.12
2023-05-09T14:49:22.517Z,19.11
2023-05-09T14:51:51.544Z,19.07
2023-05-09T14:54:20.315Z,19.02
2023-05-09T14:56:49.325Z,18.89
2023-05-09T14:59:18.516Z,18.79
2023-05-09T15:01:47.394Z,18.69
2023-05-09T15:04:19.033Z,18.58
2023-05-09T15:06:48.031Z,18.48
2023-05-09T15:09:18.491Z,18.40
2023-05-09T15:11:49.032Z,18.30
2023-05-09T15:14:18.547Z,18.23
2023-05-09T15:16:47.855Z,18.18
2023-05-09T15:19:16.973Z,18.12
2023-05-09T15:21:46.138Z,18.01
2023-05-09T15:24:15.406Z,17.92
2023-05-09T15:26:44.447Z,17.86
2023-05-09T15:29:13.418Z,17.84
2023-05-09T15:31:43.814Z,17.81
2023-05-09T15:34:12.798Z,17.78
2023-05-09T15:36:41.608Z,17.75
2023-05-09T15:39:10.807Z,17.72
2023-05-09T15:41:40.710Z,17.67
2023-05-09T15:44:09.906Z,17.61
2023-05-09T15:46:41.775Z,17.52
2023-05-09T15:49:10.869Z,17.47
2023-05-09T15:51:39.648Z,17.40
2023-05-09T15:54:08.608Z,17.28
2023-05-09T15:56:38.982Z,17.22
2023-05-09T15:59:09.327Z,17.19
2023-05-09T16:01:39.164Z,17.17
2023-05-09T16:04:10.265Z,17.14
2023-05-09T16:06:39.917Z,17.05
2023-05-09T16:09:09.039Z,16.98
2023-05-09T16:11:37.956Z,16.93
2023-05-09T16:14:08.768Z,16.88
2023-05-09T16:16:38.299Z,16.87
2023-05-09T16:19:09.868Z,16.78
2023-05-09T16:21:39.239Z,16.73
2023-05-09T16:24:10.622Z,16.68
2023-05-09T16:26:40.130Z,16.65
2023-05-09T16:29:10.695Z,16.60
2023-05-09T16:31:44.412Z,16.55
2023-05-09T16:34:12.588Z,16.47
2023-05-09T16:36:43.595Z,16.42
2023-05-09T16:39:15.585Z,16.35
2023-05-09T16:41:44.525Z,16.27
2023-05-09T16:44:14.869Z,16.19
2023-05-09T16:46:46.942Z,16.09
2023-05-09T16:49:15.969Z,16.03
2023-05-09T16:51:45.119Z,15.96
2023-05-09T16:54:13.977Z,15.92
2023-05-09T16:56:45.176Z,15.86
2023-05-09T16:59:14.464Z,15.79
2023-05-09T17:01:47.269Z,15.73
2023-05-09T17:04:19.110Z,15.65
2023-05-09T17:06:49.585Z,15.57
2023-05-09T17:09:18.828Z,15.49
2023-05-09T17:11:48.356Z,15.41
2023-05-09T17:14:17.356Z,15.33
2023-05-09T17:16:46.453Z,15.27
2023-05-09T17:19:16.464Z,15.20
2023-05-09T17:21:45.528Z,15.13
2023-05-09T17:24:15.324Z,15.05
2023-05-09T17:26:44.158Z,14.97
2023-05-09T17:29:13.233Z,14.88
2023-05-09T17:31:44.703Z,14.79
2023-05-09T17:34:13.978Z,14.72
2023-05-09T17:36:42.905Z,14.64
2023-05-09T17:39:11.880Z,14.57
2023-05-09T17:41:41.249Z,14.47
2023-05-09T17:44:10.792Z,14.38
2023-05-09T17:46:45.236Z,14.29
2023-05-09T17:49:16.169Z,14.17
2023-05-09T17:51:48.875Z,14.06
2023-05-09T17:54:18.775Z,13.94
2023-05-09T17:56:50.470Z,13.85
2023-05-09T17:59:19.386Z,13.75
2023-05-09T18:01:48.342Z,13.66
2023-05-09T18:04:17.118Z,13.55
2023-05-09T18:06:46.881Z,13.44
2023-05-09T18:09:15.684Z,13.35
2023-05-09T18:11:45.499Z,13.23
2023-05-09T18:14:14.630Z,13.10
2023-05-09T18:16:44.545Z,12.96
2023-05-09T18:19:13.411Z,12.87
2023-05-09T18:21:42.216Z,12.77
2023-05-09T18:24:10.991Z,12.65
2023-05-09T18:26:42.389Z,12.51
2023-05-09T18:29:11.772Z,12.40
2023-05-09T18:31:41.959Z,12.30
2023-05-09T18:34:11.190Z,12.17
2023-05-09T18:36:40.238Z,12.03
2023-05-09T18:39:11.200Z,11.90
2023-05-09T18:41:40.535Z,11.79
2023-05-09T18:44:12.068Z,11.70
2023-05-09T18:46:44.276Z,11.59
2023-05-09T18:49:13.721Z,11.50
2023-05-09T18:51:42.741Z,11.42
2023-05-09T18:54:13.470Z,11.37
2023-05-09T18:56:43.091Z,11.27
2023-05-09T18:59:13.299Z,11.17
2023-05-09T19:01:45.784Z,11.05
2023-05-09T19:04:16.712Z,10.93
2023-05-09T19:06:45.748Z,10.83
2023-05-09T19:09:14.562Z,10.73
2023-05-09T19:11:43.566Z,10.62
2023-05-09T19:14:21.948Z,10.56
2023-05-09T19:16:50.948Z,10.52
2023-05-09T19:19:20.005Z,10.47
2023-05-09T19:21:56.311Z,10.43
2023-05-09T19:24:32.459Z,10.36
2023-05-09T19:27:02.168Z,10.30
2023-05-09T19:29:31.105Z,10.22
2023-05-09T19:32:00.783Z,10.16
2023-05-09T19:34:29.866Z,10.09
2023-05-09T19:36:58.703Z,10.02
2023-05-09T19:39:29.227Z,9.95
2023-05-09T19:42:00.306Z,9.89
2023-05-09T19:44:30.160Z,9.82
2023-05-09T19:47:00.496Z,9.74
2023-05-09T19:49:30.632Z,9.66
2023-05-09T19:51:59.611Z,9.57
2023-05-09T19:54:28.482Z,9.50
2023-05-09T19:56:57.410Z,9.45
2023-05-09T19:59:27.132Z,9.38
2023-05-09T20:01:56.495Z,9.32
2023-05-09T20:04:26.297Z,9.23
2023-05-09T20:06:55.244Z,9.17
2023-05-09T20:09:31.711Z,9.09
2023-05-09T20:12:03.226Z,9.03
2023-05-09T20:14:32.177Z,9.00
2023-05-09T20:17:02.013Z,8.95
2023-05-09T20:19:35.361Z,8.92
2023-05-09T20:22:04.207Z,8.88
2023-05-09T20:24:34.031Z,8.84
2023-05-09T20:27:03.005Z,8.80
2023-05-09T20:29:32.511Z,8.76
2023-05-09T20:32:02.248Z,8.69
2023-05-09T20:34:31.630Z,8.63
2023-05-09T20:37:03.695Z,8.57
2023-05-09T20:39:32.737Z,8.49
2023-05-09T20:42:05.936Z,8.42
2023-05-09T20:44:36.981Z,8.38
2023-05-09T20:47:06.680Z,8.34
2023-05-09T20:49:38.234Z,8.30
2023-05-09T20:52:07.301Z,8.25
2023-05-09T20:54:36.634Z,8.22
2023-05-09T20:57:05.480Z,8.21
2023-05-09T20:59:34.956Z,8.17
2023-05-09T21:02:03.978Z,8.15
2023-05-09T21:04:32.921Z,8.12
2023-05-09T21:07:06.454Z,8.09
2023-05-09T21:09:35.981Z,8.07
2023-05-09T21:12:05.342Z,8.04
2023-05-09T21:14:35.194Z,8.01
2023-05-09T21:17:04.226Z,7.97
2023-05-09T21:19:34.675Z,7.96
2023-05-09T21:22:03.600Z,7.94
2023-05-09T21:24:37.115Z,7.92
2023-05-09T21:27:06.211Z,7.90
2023-05-09T21:29:38.473Z,7.88
2023-05-09T21:32:08.090Z,7.85
2023-05-09T21:34:37.181Z,7.82
2023-05-09T21:37:06.161Z,7.80
2023-05-09T21:39:36.709Z,7.78
2023-05-09T21:42:05.714Z,7.75
2023-05-09T21:44:34.995Z,7.72
2023-05-09T21:47:04.176Z,7.70
2023-05-09T21:49:35.014Z,7.67
2023-05-09T21:52:05.762Z,7.64
2023-05-09T21:54:35.180Z,7.61
2023-05-09T21:57:04.259Z,7.58
2023-05-09T21:59:34.965Z,7.55
2023-05-09T22:02:03.935Z,7.54
2023-05-09T22:04:34.104Z,7.51
2023-05-09T22:07:05.212Z,7.48
2023-05-09T22:09:36.339Z,7.42
2023-05-09T22:12:06.110Z,7.35
2023-05-09T22:14:45.374Z,7.32
2023-05-09T22:17:22.226Z,7.26
2023-05-09T22:19:52.538Z,7.22
2023-05-09T22:22:21.516Z,7.18
2023-05-09T22:24:50.453Z,7.16
2023-05-09T22:27:19.375Z,7.11
2023-05-09T22:29:48.212Z,7.08
2023-05-09T22:32:17.753Z,7.04
2023-05-09T22:34:48.064Z,7.00
2023-05-09T22:37:17.340Z,6.96
2023-05-09T22:39:47.758Z,6.92
2023-05-09T22:42:16.807Z,6.89
2023-05-09T22:44:46.676Z,6.85
2023-05-09T22:47:15.847Z,6.80
2023-05-09T22:49:45.839Z,6.77
2023-05-09T22:52:15.268Z,6.75
2023-05-09T22:54:45.260Z,6.70
2023-05-09T22:57:17.309Z,6.65
2023-05-09T22:59:46.751Z,6.61
2023-05-09T23:02:16.708Z,6.57
2023-05-09T23:04:45.673Z,6.53
2023-05-09T23:07:15.306Z,6.49
2023-05-09T23:09:45.931Z,6.47
2023-05-09T23:12:15.184Z,6.43
2023-05-09T23:14:44.003Z,6.39
2023-05-09T23:17:12.892Z,6.33
2023-05-09T23:19:41.972Z,6.29
2023-05-09T23:22:10.903Z,6.24
2023-05-09T23:24:39.622Z,6.20
2023-05-09T23:27:09.035Z,6.17
2023-05-09T23:29:37.845Z,6.15
2023-05-09T23:32:06.790Z,6.12
2023-05-09T23:34:36.209Z,6.09
2023-05-09T23:37:11.954Z,6.07
2023-05-09T23:39:42.659Z,6.03
2023-05-09T23:42:11.887Z,5.99
2023-05-09T23:44:40.772Z,5.96
2023-05-09T23:47:10.381Z,5.93
2023-05-09T23:49:39.810Z,5.88
2023-05-09T23:52:09.726Z,5.85
2023-05-09T23:54:39.435Z,5.83
2023-05-09T23:57:08.413Z,5.82
2023-05-09T23:59:37.555Z,5.79
